Time;durP1;ratioP1;P1;durP2;ratioP2;P2;SDS_P1;SDS_P2;PMS_P1;PMS_P2;Temp;Humidity;BMP_temperature;BMP_pressure;BME280_temperature;BME280_humidity;BME280_pressure;Samples;Min_cycle;Max_cycle;Signal;HPM_P1;HPM_P2
2022/03/16 00:01:16;;;;;;;23.83;14.18;;;;;;;3.57;56.29;101302.25;5029316;28;20055;-21
2022/03/16 00:03:42;;;;;;;43.67;24.35;;;;;;;3.49;55.72;101272.28;5011120;28;20040;-21
2022/03/16 00:06:07;;;;;;;46.70;27.33;;;;;;;3.57;55.05;101286.41;4995151;28;20478;-21
2022/03/16 00:08:33;;;;;;;34.72;20.83;;;;;;;3.71;54.78;101302.78;5029214;28;20022;-21
2022/03/16 00:10:59;;;;;;;24.35;14.85;;;;;;;3.71;54.37;101292.22;5028985;28;20083;-21
2022/03/16 00:13:25;;;;;;;24.17;13.82;;;;;;;3.60;55.10;101301.97;5010935;28;20072;-21
2022/03/16 00:15:50;;;;;;;19.17;11.18;;;;;;;3.51;56.33;101281.72;5029296;28;20478;-21
2022/03/16 00:18:16;;;;;;;25.80;15.15;;;;;;;3.47;56.99;101277.69;5029061;28;20037;-21
2022/03/16 00:20:41;;;;;;;30.40;16.40;;;;;;;2.92;58.81;101286.25;5029117;28;20490;-20
2022/03/16 00:23:07;;;;;;;26.10;15.00;;;;;;;3.19;58.23;101280.28;5028609;28;20553;-21
2022/03/16 00:25:32;;;;;;;27.35;15.70;;;;;;;3.34;57.22;101253.47;5028777;28;20032;-21
2022/03/16 00:27:58;;;;;;;27.55;15.93;;;;;;;3.83;55.77;101270.78;5028892;28;20033;-21
2022/03/16 00:30:23;;;;;;;24.50;14.38;;;;;;;4.12;55.17;101284.84;4994414;28;20417;-20
2022/03/16 00:32:49;;;;;;;24.88;15.82;;;;;;;3.85;55.19;101243.44;5028423;28;20048;-21
2022/03/16 00:35:14;;;;;;;29.73;16.27;;;;;;;3.86;55.94;101260.91;5028623;28;20037;-20
2022/03/16 00:37:39;;;;;;;25.92;15.45;;;;;;;3.74;56.78;101266.41;5028847;28;20043;-21
2022/03/16 00:40:06;;;;;;;24.33;14.77;;;;;;;3.82;55.91;101247.19;5010899;28;20029;-20
2022/03/16 00:42:31;;;;;;;26.75;15.25;;;;;;;3.70;55.66;101254.47;5028402;28;20113;-21
2022/03/16 00:44:56;;;;;;;28.33;16.77;;;;;;;3.49;57.00;101265.19;5028286;28;20025;-21
2022/03/16 00:47:22;;;;;;;32.03;20.30;;;;;;;3.33;57.86;101262.31;5028515;28;20036;-20
2022/03/16 00:49:47;;;;;;;32.83;19.58;;;;;;;3.17;58.46;101247.94;5028619;28;20033;-20
2022/03/16 00:52:13;;;;;;;33.15;19.77;;;;;;;3.25;58.59;101225.31;5028354;28;20504;-21
2022/03/16 00:54:38;;;;;;;34.58;20.83;;;;;;;3.04;59.38;101236.84;5028705;28;20036;-21
2022/03/16 00:57:04;;;;;;;34.70;21.55;;;;;;;3.16;59.23;101245.44;5010174;28;20033;-21
2022/03/16 00:59:29;;;;;;;38.00;21.10;;;;;;;3.26;58.21;101234.88;5028283;28;20034;-21
2022/03/16 01:01:55;;;;;;;43.10;23.95;;;;;;;3.40;57.96;101242.34;5010186;28;20032;-20
2022/03/16 01:04:20;;;;;;;49.35;26.52;;;;;;;3.45;58.07;101239.28;5027786;28;20018;-20
2022/03/16 01:06:46;;;;;;;48.50;28.17;;;;;;;3.65;57.03;101255.88;5028291;28;20029;-21
2022/03/16 01:09:11;;;;;;;40.08;22.92;;;;;;;3.97;56.31;101244.91;5027779;28;20052;-20
2022/03/16 01:11:37;;;;;;;38.17;22.25;;;;;;;4.10;55.27;101239.28;5027864;28;20033;-21
2022/03/16 01:14:03;;;;;;;35.92;21.23;;;;;;;4.32;54.11;101262.63;5028089;28;20053;-20
2022/03/16 01:16:28;;;;;;;43.35;23.15;;;;;;;3.29;58.14;101226.69;5027735;28;20030;-21
2022/03/16 01:18:54;;;;;;;29.00;17.48;;;;;;;2.83;59.07;101223.03;5027814;28;20076;-21
2022/03/16 01:21:19;;;;;;;28.58;17.25;;;;;;;3.37;58.87;101239.97;5028009;28;20051;-21
2022/03/16 01:23:45;;;;;;;30.92;18.45;;;;;;;3.69;56.77;101236.13;5010228;28;20493;-21
2022/03/16 01:26:10;;;;;;;30.38;17.10;;;;;;;3.10;58.46;101225.75;5027820;28;20629;-20
2022/03/16 01:28:36;;;;;;;30.55;17.83;;;;;;;3.20;58.28;101231.81;5028141;28;20052;-20
2022/03/16 01:31:02;;;;;;;30.10;18.60;;;;;;;2.91;59.80;101216.06;5027408;28;20417;-20
2022/03/16 01:33:28;;;;;;;33.08;18.75;;;;;;;2.38;61.88;101204.16;5010023;28;20379;-21
2022/03/16 01:35:54;;;;;;;30.60;18.05;;;;;;;2.49;61.93;101226.06;5027628;28;20140;-20
2022/03/16 01:38:19;;;;;;;29.20;17.95;;;;;;;2.68;61.10;101198.91;5027782;28;20690;-22
2022/03/16 01:40:45;;;;;;;31.98;19.75;;;;;;;2.85;59.95;101207.91;5027613;28;20040;-21
2022/03/16 01:43:11;;;;;;;30.38;16.48;;;;;;;2.07;63.30;101199.97;5027575;28;20544;-21
2022/03/16 01:45:36;;;;;;;26.98;17.50;;;;;;;1.79;64.67;101208.47;5027776;28;20041;-21
2022/03/16 01:48:02;;;;;;;32.33;18.55;;;;;;;2.18;63.06;101210.38;5027642;28;20029;-20
2022/03/16 01:50:27;;;;;;;33.10;17.73;;;;;;;2.42;63.30;101204.72;5027404;28;20171;-21
2022/03/16 01:52:53;;;;;;;31.58;16.98;;;;;;;2.74;61.16;101193.91;5027461;28;20502;-20
2022/03/16 01:55:19;;;;;;;29.23;18.05;;;;;;;3.01;60.12;101194.97;5027589;28;20037;-21
2022/03/16 01:57:47;;;;;;;28.95;16.38;;;;;;;2.85;61.08;101185.00;5027357;28;20067;-20
2022/03/16 02:00:13;;;;;;;30.65;17.77;;;;;;;2.35;63.10;101167.59;5027231;28;20084;-21
2022/03/16 02:02:39;;;;;;;32.33;18.90;;;;;;;3.00;61.32;101188.03;5031104;28;20120;-21
2022/03/16 02:05:04;;;;;;;29.55;17.60;;;;;;;2.36;63.60;101195.56;5013740;28;20115;-20
2022/03/16 02:07:30;;;;;;;28.45;16.60;;;;;;;2.26;64.30;101197.34;5031552;28;20029;-20
2022/03/16 02:09:59;;;;;;;26.67;16.38;;;;;;;1.97;65.11;101166.56;5013508;28;20032;-20
2022/03/16 02:12:25;;;;;;;31.88;20.60;;;;;;;1.68;65.69;101169.13;5031122;28;20029;-21
2022/03/16 02:14:50;;;;;;;32.53;19.70;;;;;;;1.55;66.22;101158.84;5030935;28;20034;-21
2022/03/16 02:17:16;;;;;;;40.22;20.95;;;;;;;1.81;66.01;101169.72;5031884;28;20108;-20
2022/03/16 02:19:41;;;;;;;47.58;24.52;;;;;;;2.32;63.15;101146.78;5031310;28;20029;-20
2022/03/16 02:22:10;;;;;;;46.63;23.38;;;;;;;2.31;63.87;101160.94;5013357;28;20471;-20
2022/03/16 02:24:35;;;;;;;35.88;19.40;;;;;;;2.28;63.92;101155.94;5031258;28;20109;-21
2022/03/16 02:27:01;;;;;;;37.38;19.88;;;;;;;2.63;62.48;101166.88;5013078;28;20120;-22
2022/03/16 02:29:27;;;;;;;32.72;18.88;;;;;;;2.35;63.08;101149.16;5030901;28;20017;-21
2022/03/16 02:31:52;;;;;;;31.42;19.17;;;;;;;2.40;63.16;101160.09;5031004;28;20057;-21
2022/03/16 02:34:18;;;;;;;34.42;20.23;;;;;;;2.16;64.81;101154.41;5030990;28;20485;-20
2022/03/16 02:36:43;;;;;;;30.40;19.38;;;;;;;2.75;63.26;101153.41;5013026;28;20060;-22
2022/03/16 02:39:09;;;;;;;32.10;18.83;;;;;;;3.42;59.94;101150.75;5030723;28;20053;-20
2022/03/16 02:41:34;;;;;;;33.17;19.70;;;;;;;3.60;58.89;101138.44;5012980;28;20064;-21
2022/03/16 02:43:59;;;;;;;36.72;21.13;;;;;;;3.72;58.75;101156.69;5012838;28;20083;-21
2022/03/16 02:46:25;;;;;;;32.85;20.73;;;;;;;3.19;59.86;101119.47;5030958;28;20026;-20
2022/03/16 02:48:50;;;;;;;39.90;20.98;;;;;;;3.75;58.41;101132.66;5030781;28;20063;-21
2022/03/16 02:51:16;;;;;;;36.88;21.17;;;;;;;3.27;59.55;101131.94;5031027;28;20041;-21
2022/03/16 02:53:42;;;;;;;32.75;19.50;;;;;;;3.61;58.26;101129.53;5030768;28;20029;-20
2022/03/16 02:56:08;;;;;;;29.75;18.60;;;;;;;3.67;57.99;101127.28;5030683;28;20033;-20
2022/03/16 02:58:34;;;;;;;36.00;19.25;;;;;;;3.46;58.58;101131.00;5012633;28;20032;-21
2022/03/16 03:00:59;;;;;;;48.28;21.13;;;;;;;3.42;58.89;101134.91;5030253;28;20056;-20
2022/03/16 03:03:25;;;;;;;43.42;21.13;;;;;;;3.48;58.68;101123.78;5030417;28;20482;-22
2022/03/16 03:05:54;;;;;;;40.55;19.27;;;;;;;3.65;57.57;101129.25;5012635;28;20128;-21
2022/03/16 03:08:19;;;;;;;;;;;;;;;3.46;57.24;101119.63;5030771;28;20040;-21
2022/03/16 03:10:44;;;;;;;27.52;14.68;;;;;;;3.28;57.61;101093.22;5012399;28;19927;-21
2022/03/16 03:13:11;;;;;;;26.55;14.82;;;;;;;3.41;57.47;101112.16;5029897;28;20045;-20
2022/03/16 03:15:37;;;;;;;25.02;15.13;;;;;;;3.75;56.61;101122.09;5030561;28;20152;-21
2022/03/16 03:18:03;;;;;;;25.67;15.57;;;;;;;3.89;55.90;101126.88;5030578;28;20087;-21
2022/03/16 03:20:28;;;;;;;23.77;15.38;;;;;;;3.76;56.02;101126.38;5029921;28;20021;-21
2022/03/16 03:22:54;;;;;;;34.20;20.35;;;;;;;3.60;56.68;101121.78;5029760;28;20031;-20
2022/03/16 03:25:19;;;;;;;35.80;21.33;;;;;;;3.53;57.03;101134.72;5030298;28;20029;-22
2022/03/16 03:27:45;;;;;;;27.67;18.02;;;;;;;3.14;58.45;101136.69;5012062;28;20478;-21
2022/03/16 03:30:11;;;;;;;26.48;15.50;;;;;;;3.01;59.35;101113.28;5029814;28;20040;-21
2022/03/16 03:32:37;;;;;;;28.45;14.93;;;;;;;2.97;59.78;101114.56;5030084;28;20038;-21
2022/03/16 03:35:02;;;;;;;30.30;18.90;;;;;;;2.13;62.83;101094.16;5029848;28;20041;-21
2022/03/16 03:37:29;;;;;;;27.33;17.40;;;;;;;1.93;64.58;101115.19;5029928;28;20030;-21
2022/03/16 03:39:55;;;;;;;27.70;17.10;;;;;;;1.68;64.24;101094.69;5029887;28;20083;-21
2022/03/16 03:42:20;;;;;;;27.02;16.90;;;;;;;2.23;63.66;101121.31;5011555;28;20038;-20
2022/03/16 03:44:46;;;;;;;31.58;18.33;;;;;;;1.95;64.42;101096.66;5012238;28;20056;-20
2022/03/16 03:47:12;;;;;;;32.50;19.98;;;;;;;2.41;62.80;101088.06;5029739;28;20029;-21
2022/03/16 03:49:39;;;;;;;35.30;22.10;;;;;;;2.61;62.40;101104.63;5011964;28;20030;-21
2022/03/16 03:52:07;;;;;;;35.08;21.35;;;;;;;2.40;63.01;101091.66;5029768;28;20613;-20
2022/03/16 03:54:33;;;;;;;32.10;20.55;;;;;;;2.35;62.95;101083.34;5029423;28;20117;-21
2022/03/16 03:56:59;;;;;;;32.35;19.38;;;;;;;2.69;62.84;101093.41;5011121;28;20112;-21
2022/03/16 03:59:24;;;;;;;33.83;20.67;;;;;;;2.75;62.45;101092.00;5011436;28;20022;-20
2022/03/16 04:01:50;;;;;;;34.85;20.70;;;;;;;2.38;64.20;101100.66;5029754;28;20087;-20
2022/03/16 04:04:16;;;;;;;36.70;19.65;;;;;;;2.84;62.83;101095.56;5029189;28;20029;-20
2022/03/16 04:06:41;;;;;;;35.22;18.98;;;;;;;3.03;61.67;101099.97;5029369;28;20057;-20
2022/03/16 04:09:07;;;;;;;31.02;18.75;;;;;;;3.18;61.02;101094.06;5029378;28;20087;-21
2022/03/16 04:11:33;;;;;;;30.90;17.90;;;;;;;3.45;59.87;101081.88;5028995;28;20032;-21
2022/03/16 04:13:59;;;;;;;51.15;31.80;;;;;;;3.33;60.11;101083.03;5028874;28;20073;-20
2022/03/16 04:16:25;;;;;;;51.47;29.00;;;;;;;2.45;62.75;101070.16;5029251;28;20100;-21
2022/03/16 04:18:50;;;;;;;46.67;26.73;;;;;;;2.58;63.90;101083.88;5029308;28;20060;-20
2022/03/16 04:21:16;;;;;;;51.97;29.38;;;;;;;2.15;64.64;101050.94;5029160;28;20079;-21
2022/03/16 04:23:41;;;;;;;42.35;27.80;;;;;;;1.80;65.97;101041.00;5028405;28;20108;-21
2022/03/16 04:26:07;;;;;;;53.45;29.58;;;;;;;2.50;63.98;101056.59;5010979;28;20136;-21
2022/03/16 04:28:33;;;;;;;74.78;34.50;;;;;;;2.24;65.15;101065.06;5028764;28;20036;-21
2022/03/16 04:31:00;;;;;;;47.85;28.92;;;;;;;1.96;66.04;101062.31;5027232;28;20065;-21
2022/03/16 04:33:26;;;;;;;53.70;30.73;;;;;;;1.50;68.50;101049.81;5028619;28;20021;-20
2022/03/16 04:35:51;;;;;;;44.60;24.17;;;;;;;1.35;69.03;101052.00;5010808;28;20409;-20
2022/03/16 04:38:17;;;;;;;47.22;25.20;;;;;;;1.71;67.63;101032.09;5028690;28;20026;-20
2022/03/16 04:40:43;;;;;;;40.05;22.63;;;;;;;1.70;67.91;101066.44;5028391;28;20094;-20
2022/03/16 04:43:08;;;;;;;41.42;24.38;;;;;;;2.05;66.02;101067.72;5010428;28;20022;-21
2022/03/16 04:45:37;;;;;;;45.28;24.55;;;;;;;2.41;65.17;101056.47;5028632;28;20091;-21
2022/03/16 04:48:03;;;;;;;61.00;32.63;;;;;;;2.81;62.97;101065.91;5028604;28;20029;-21
2022/03/16 04:50:28;;;;;;;60.45;30.42;;;;;;;2.41;65.09;101074.88;5028910;28;20040;-21
2022/03/16 04:52:54;;;;;;;48.83;25.67;;;;;;;1.93;66.04;101051.22;5010449;28;20029;-22
2022/03/16 04:55:20;;;;;;;47.25;24.67;;;;;;;2.67;64.36;101073.44;5028223;28;20417;-21
2022/03/16 04:57:45;;;;;;;49.92;25.70;;;;;;;2.62;64.12;101079.16;5010668;28;20044;-20
2022/03/16 05:00:11;;;;;;;44.67;22.98;;;;;;;2.41;65.29;101069.63;5028428;28;20025;-21
2022/03/16 05:02:37;;;;;;;37.90;22.15;;;;;;;1.54;68.66;101035.41;5028561;28;20564;-20
2022/03/16 05:05:03;;;;;;;38.53;20.60;;;;;;;1.44;69.20;101030.13;5028295;28;20025;-20
2022/03/16 05:07:29;;;;;;;45.28;22.90;;;;;;;1.98;67.69;101049.84;5028121;28;20037;-20
2022/03/16 05:09:54;;;;;;;37.60;21.48;;;;;;;1.68;69.32;101047.34;5027921;28;20406;-21
2022/03/16 05:12:19;;;;;;;58.15;28.25;;;;;;;1.55;69.71;101037.91;5027924;28;20493;-21
2022/03/16 05:14:45;;;;;;;43.00;24.60;;;;;;;1.60;69.06;101035.69;5028149;28;20054;-21
2022/03/16 05:17:10;;;;;;;37.63;23.15;;;;;;;2.05;67.87;101026.44;5027870;28;20029;-21
2022/03/16 05:19:36;;;;;;;44.88;23.05;;;;;;;2.69;65.11;101032.81;5009966;28;20402;-20
2022/03/16 05:22:01;;;;;;;45.45;23.05;;;;;;;2.96;64.34;101039.09;5028200;28;20021;-21
2022/03/16 05:24:27;;;;;;;52.17;28.67;;;;;;;2.75;65.14;101034.06;5027699;28;20390;-20
2022/03/16 05:26:53;;;;;;;52.25;29.60;;;;;;;2.60;65.52;101044.22;5027741;28;20033;-20
2022/03/16 05:29:18;;;;;;;65.25;34.50;;;;;;;2.53;65.34;101037.84;5027882;28;20029;-21
2022/03/16 05:31:44;;;;;;;81.50;39.20;;;;;;;2.84;64.88;101050.78;5027900;28;20493;-20
2022/03/16 05:34:10;;;;;;;151.25;59.47;;;;;;;3.22;62.73;101045.34;5027768;28;20073;-21
2022/03/16 05:36:36;;;;;;;132.95;57.30;;;;;;;3.20;62.68;101051.75;5026881;28;20025;-21
2022/03/16 05:39:03;;;;;;;153.25;62.13;;;;;;;2.65;64.37;101028.00;5009646;28;20112;-20
2022/03/16 05:41:29;;;;;;;156.57;64.73;;;;;;;2.59;65.33;101040.75;5027797;28;20060;-21
2022/03/16 05:43:55;;;;;;;149.27;59.75;;;;;;;2.10;67.08;101031.28;5027737;28;20061;-21
2022/03/16 05:46:21;;;;;;;123.20;53.03;;;;;;;1.95;68.62;101050.13;5010142;28;20030;-20
2022/03/16 05:48:47;;;;;;;96.95;44.13;;;;;;;2.08;68.28;101033.22;5027609;28;20025;-20
2022/03/16 05:51:12;;;;;;;110.60;53.13;;;;;;;1.99;68.59;101019.94;5009979;28;20040;-22
2022/03/16 05:53:38;;;;;;;52.08;28.33;;;;;;;1.74;68.79;101031.03;5027241;28;20497;-20
2022/03/16 05:56:04;;;;;;;44.72;24.25;;;;;;;1.31;70.66;101000.63;5027712;28;20052;-21
2022/03/16 05:58:30;;;;;;;59.75;31.17;;;;;;;1.36;70.53;101006.34;5027399;28;20116;-21
2022/03/16 06:00:55;;;;;;;56.92;32.63;;;;;;;2.08;68.88;101007.72;5027250;28;20055;-21
2022/03/16 06:03:21;;;;;;;51.92;30.58;;;;;;;2.04;68.58;101006.34;5009511;28;20030;-23
2022/03/16 06:05:46;;;;;;;74.45;36.88;;;;;;;2.54;68.32;101026.38;5027446;28;20526;-20
2022/03/16 06:08:11;;;;;;;68.15;34.58;;;;;;;2.84;66.05;101013.91;5027358;28;20026;-20
2022/03/16 06:10:38;;;;;;;59.33;32.15;;;;;;;2.90;65.72;101005.44;5027796;28;20084;-21
2022/03/16 06:13:05;;;;;;;58.08;33.38;;;;;;;2.52;66.36;101013.34;5009209;28;20096;-26
2022/03/16 06:15:41;;;;;;;48.97;28.90;;;;;;;2.09;68.12;101025.19;5027310;28;20128;-20
2022/03/16 06:18:07;;;;;;;44.97;26.40;;;;;;;2.08;69.73;101007.72;5009849;28;20034;-20
2022/03/16 06:20:34;;;;;;;55.97;31.92;;;;;;;2.57;67.64;101028.69;5027158;28;20033;-21
2022/03/16 06:23:00;;;;;;;58.83;31.52;;;;;;;2.39;68.00;101033.84;5009342;28;20135;-22
2022/03/16 06:25:26;;;;;;;60.08;34.15;;;;;;;2.67;67.53;101033.94;5009450;28;20025;-21
2022/03/16 06:27:52;;;;;;;69.63;39.53;;;;;;;3.11;66.06;101029.75;5027165;28;20386;-20
2022/03/16 06:30:18;;;;;;;263.13;98.90;;;;;;;3.37;64.70;101014.06;5027243;28;20057;-21
2022/03/16 06:32:47;;;;;;;83.30;42.25;;;;;;;3.13;65.92;101034.88;5027306;28;20111;-22
2022/03/16 06:35:14;;;;;;;77.07;40.83;;;;;;;2.84;67.27;100998.97;5027175;28;20049;-21
2022/03/16 06:37:39;;;;;;;113.50;54.35;;;;;;;2.91;67.34;101002.66;5027186;28;20029;-20
2022/03/16 06:40:06;;;;;;;106.68;49.42;;;;;;;2.90;67.37;101013.34;5009431;28;20037;-21
2022/03/16 06:42:31;;;;;;;111.70;52.45;;;;;;;2.89;66.77;100995.88;5026893;28;20034;-21
2022/03/16 06:44:57;;;;;;;146.98;63.00;;;;;;;3.10;66.14;101020.16;5008979;28;20520;-21
2022/03/16 06:47:22;;;;;;;230.30;88.13;;;;;;;2.83;66.51;100997.28;5028139;28;20104;-20
2022/03/16 06:49:48;;;;;;;220.57;86.55;;;;;;;2.94;66.33;101005.00;5030534;28;20034;-21
2022/03/16 06:52:13;;;;;;;120.65;55.05;;;;;;;2.66;66.39;101001.53;5030989;28;20030;-21
2022/03/16 06:54:39;;;;;;;102.32;39.67;;;;;;;2.36;67.21;100984.97;5030832;28;20025;-20
2022/03/16 06:57:05;;;;;;;90.90;37.88;;;;;;;2.42;67.71;100988.84;5030558;28;20037;-20
2022/03/16 06:59:30;;;;;;;52.97;31.48;;;;;;;2.15;68.57;100976.44;5030572;28;20612;-21
2022/03/16 07:01:55;;;;;;;43.42;28.38;;;;;;;2.30;69.20;100984.72;5030683;28;20485;-21
2022/03/16 07:04:21;;;;;;;42.67;28.08;;;;;;;2.27;68.66;100985.84;5030303;28;20032;-20
2022/03/16 07:06:46;;;;;;;38.35;22.77;;;;;;;2.14;69.42;100980.03;5012835;28;20033;-21
2022/03/16 07:09:12;;;;;;;49.17;32.22;;;;;;;2.53;68.69;100996.53;5030287;28;20031;-22
2022/03/16 07:11:37;;;;;;;48.80;31.60;;;;;;;2.60;67.71;100997.66;5012662;28;20040;-21
2022/03/16 07:16:47;;;;;;;55.50;36.38;;;;;;;2.80;67.30;100987.06;5029901;28;20812;-22
2022/03/16 07:19:12;;;;;;;47.25;31.02;;;;;;;3.00;66.38;101012.34;5030703;28;20116;-21
2022/03/16 07:21:38;;;;;;;40.55;26.20;;;;;;;3.08;66.00;100994.94;5030557;28;20087;-21
2022/03/16 07:24:05;;;;;;;60.60;41.85;;;;;;;2.85;66.20;100969.00;5030140;28;20106;-20
2022/03/16 07:26:30;;;;;;;43.80;25.98;;;;;;;2.87;67.79;100984.66;5029997;28;20490;-21
2022/03/16 07:28:56;;;;;;;42.67;26.63;;;;;;;2.70;68.10;100942.31;5030074;28;20084;-20
2022/03/16 07:31:22;;;;;;;39.78;23.13;;;;;;;3.06;66.78;100981.09;5029871;28;20115;-21
2022/03/16 07:33:48;;;;;;;33.97;22.33;;;;;;;3.03;65.74;100963.75;5029985;28;20065;-21
2022/03/16 07:36:13;;;;;;;33.97;22.38;;;;;;;3.02;66.23;100983.19;5029907;28;20581;-20
2022/03/16 07:38:39;;;;;;;35.92;20.52;;;;;;;3.01;67.78;100978.91;5011959;28;20038;-20
2022/03/16 07:41:05;;;;;;;30.55;17.17;;;;;;;3.10;68.31;100971.91;5029581;28;20021;-20
2022/03/16 07:43:31;;;;;;;67.85;35.13;;;;;;;3.04;67.84;100975.13;5029985;28;20040;-20
2022/03/16 07:45:58;;;;;;;27.25;16.35;;;;;;;3.00;67.70;100961.41;5029572;28;20033;-21
2022/03/16 07:48:23;;;;;;;29.23;17.48;;;;;;;2.97;67.88;100952.00;5029674;28;20034;-20
2022/03/16 07:50:50;;;;;;;32.00;18.70;;;;;;;3.14;68.37;100960.09;5011668;28;20405;-20
2022/03/16 07:53:16;;;;;;;125.25;50.35;;;;;;;3.35;67.62;100965.94;5029548;28;20065;-20
2022/03/16 07:55:41;;;;;;;34.40;18.95;;;;;;;3.36;67.55;100966.75;5029511;28;20053;-20
2022/03/16 07:58:07;;;;;;;113.47;53.50;;;;;;;3.56;66.32;100978.81;5010929;28;20033;-21
2022/03/16 08:00:32;;;;;;;55.42;32.13;;;;;;;3.61;66.62;100976.53;5028614;28;20037;-21
2022/03/16 08:03:02;;;;;;;65.28;35.80;;;;;;;3.65;66.60;100984.16;5029062;28;20034;-20
2022/03/16 08:05:28;;;;;;;41.67;26.25;;;;;;;3.72;67.40;100977.28;5029314;28;20033;-20
2022/03/16 08:07:54;;;;;;;30.58;19.83;;;;;;;3.80;68.55;100975.56;5029227;28;20033;-21
2022/03/16 08:10:20;;;;;;;71.75;34.45;;;;;;;3.80;68.14;100972.94;5028887;28;20118;-21
2022/03/16 08:12:45;;;;;;;35.03;21.88;;;;;;;3.70;69.08;100966.06;5028895;28;20042;-21
2022/03/16 08:15:11;;;;;;;40.10;25.60;;;;;;;4.01;68.01;100966.50;5028607;28;20033;-21
2022/03/16 08:17:37;;;;;;;28.17;17.83;;;;;;;3.56;70.00;100967.44;5029225;28;20037;-21
2022/03/16 08:20:02;;;;;;;28.05;19.50;;;;;;;3.44;70.24;100958.91;5010851;28;20030;-21
2022/03/16 08:22:33;;;;;;;29.23;21.23;;;;;;;3.73;69.70;100971.03;5028316;28;20029;-20
2022/03/16 08:25:00;;;;;;;26.20;17.40;;;;;;;3.67;70.03;100947.91;5028252;28;20056;-20
2022/03/16 08:27:26;;;;;;;29.03;18.37;;;;;;;3.62;69.13;100945.75;5028313;28;20080;-21
2022/03/16 08:29:52;;;;;;;33.92;22.83;;;;;;;3.97;68.66;100963.31;5010602;28;20323;-20
2022/03/16 08:32:18;;;;;;;30.65;17.75;;;;;;;3.73;69.20;100963.13;5028650;28;20044;-28
2022/03/16 08:34:44;;;;;;;30.58;18.77;;;;;;;4.08;69.02;100951.69;5028267;28;20079;-21
2022/03/16 08:37:10;;;;;;;27.27;17.55;;;;;;;4.05;68.63;100948.53;5027628;28;20391;-21
2022/03/16 08:39:40;;;;;;;28.83;18.85;;;;;;;3.40;71.45;100931.19;5028381;28;20040;-21
2022/03/16 08:42:08;;;;;;;35.53;22.38;;;;;;;3.68;70.39;100953.03;5028468;28;20021;-20
2022/03/16 08:44:35;;;;;;;30.70;18.23;;;;;;;3.48;71.94;100931.28;5010464;28;20449;-21
2022/03/16 08:47:00;;;;;;;31.48;20.58;;;;;;;3.70;71.70;100945.81;5028193;28;20272;-22
2022/03/16 08:49:26;;;;;;;31.67;20.38;;;;;;;4.04;70.95;100942.41;5028566;28;20028;-20
2022/03/16 08:51:51;;;;;;;49.42;29.55;;;;;;;3.94;71.54;100950.44;5010504;28;20114;-21
2022/03/16 08:54:17;;;;;;;37.47;22.35;;;;;;;3.91;71.39;100940.19;5027821;28;20040;-20
2022/03/16 08:56:43;;;;;;;32.92;21.60;;;;;;;4.00;71.58;100944.56;5027977;28;20029;-21
2022/03/16 08:59:09;;;;;;;37.50;24.00;;;;;;;4.12;71.30;100945.09;5027372;28;20026;-21
2022/03/16 09:01:35;;;;;;;63.30;38.05;;;;;;;4.37;69.61;100946.09;5027580;28;20029;-20
2022/03/16 09:04:02;;;;;;;54.38;32.67;;;;;;;4.44;70.54;100951.59;5027733;28;20017;-20
2022/03/16 09:06:28;;;;;;;70.97;40.67;;;;;;;4.25;71.45;100955.28;5027588;28;20835;-20
2022/03/16 09:08:53;;;;;;;72.10;44.65;;;;;;;4.28;72.17;100930.38;5028227;28;20057;-20
2022/03/16 09:11:19;;;;;;;198.77;102.03;;;;;;;4.33;70.53;100939.47;5027949;28;20069;-20
2022/03/16 09:13:44;;;;;;;37.70;23.70;;;;;;;4.33;71.00;100921.00;5028217;28;20053;-20
2022/03/16 09:16:09;;;;;;;49.55;28.48;;;;;;;4.73;71.10;100935.38;5028024;28;20037;-20
2022/03/16 09:18:35;;;;;;;55.90;33.42;;;;;;;5.04;69.14;100934.81;5028183;28;20037;-20
2022/03/16 09:21:02;;;;;;;41.13;24.38;;;;;;;4.82;69.91;100923.84;5027582;28;20029;-21
2022/03/16 09:23:31;;;;;;;53.22;31.33;;;;;;;4.97;70.26;100925.88;5027859;28;20075;-20
2022/03/16 09:25:58;;;;;;;68.22;38.58;;;;;;;4.90;70.47;100903.72;5027765;28;20024;-20
2022/03/16 09:28:23;;;;;;;81.78;43.72;;;;;;;5.55;67.93;100922.31;5027818;28;20460;-20
2022/03/16 09:30:49;;;;;;;106.82;53.60;;;;;;;5.63;67.13;100909.09;5027770;28;20022;-21
2022/03/16 09:33:14;;;;;;;40.10;25.17;;;;;;;5.79;67.07;100915.38;5010040;28;20029;-21
2022/03/16 09:35:40;;;;;;;75.75;42.80;;;;;;;5.83;66.55;100908.75;5009668;28;20025;-21
2022/03/16 09:38:06;;;;;;;53.47;35.47;;;;;;;5.68;67.25;100902.47;5027545;28;20033;-20
2022/03/16 09:40:33;;;;;;;30.38;19.52;;;;;;;5.89;66.52;100905.44;5027438;28;20087;-24
2022/03/16 09:42:59;;;;;;;31.60;18.88;;;;;;;5.79;67.08;100905.63;5027589;28;20041;-20
2022/03/16 09:45:29;;;;;;;34.58;19.98;;;;;;;5.83;65.91;100893.69;5027684;28;20406;-20
2022/03/16 09:47:55;;;;;;;35.55;25.17;;;;;;;6.19;65.10;100898.63;5009627;28;20053;-21
2022/03/16 09:50:21;;;;;;;35.33;23.35;;;;;;;6.00;65.41;100870.69;5027609;28;20037;-20
2022/03/16 09:52:47;;;;;;;38.22;24.50;;;;;;;6.21;64.58;100894.00;5027287;28;20497;-21
2022/03/16 09:55:14;;;;;;;41.75;25.75;;;;;;;6.74;63.45;100904.91;5027153;28;20022;-21
2022/03/16 09:57:39;;;;;;;28.30;18.83;;;;;;;6.27;64.36;100875.75;5027523;28;20040;-21
2022/03/16 10:00:06;;;;;;;27.10;17.38;;;;;;;6.23;65.31;100897.31;5027518;28;20030;-21
2022/03/16 10:02:32;;;;;;;29.63;19.90;;;;;;;5.94;65.83;100900.47;5009346;28;20102;-21
2022/03/16 10:04:57;;;;;;;27.33;19.33;;;;;;;6.04;65.94;100893.19;5027560;28;20029;-20
2022/03/16 10:07:29;;;;;;;26.60;19.15;;;;;;;6.41;65.11;100878.50;5027104;28;20087;-20
2022/03/16 10:15:24;;;;;;;43.15;27.15;;;;;;;7.38;60.08;100885.28;5027463;28;20551;-20
2022/03/16 10:17:59;;;;;;;43.58;25.83;;;;;;;7.76;59.90;100877.31;5027220;28;20026;-21
2022/03/16 10:20:32;;;;;;;38.42;24.45;;;;;;;7.53;58.96;100856.94;5027294;28;20026;-20
2022/03/16 10:23:01;;;;;;;34.72;22.10;;;;;;;8.01;58.10;100876.06;5029114;28;20030;-21
2022/03/16 10:25:32;;;;;;;38.22;23.90;;;;;;;7.84;58.31;100874.56;5031185;28;20112;-21
2022/03/16 10:28:11;;;;;;;81.55;39.20;;;;;;;7.83;58.64;100872.94;5031160;28;20132;-20
2022/03/16 10:30:58;;;;;;;109.25;51.78;;;;;;;7.76;58.65;100864.84;5030912;28;20034;-20
2022/03/16 10:33:30;;;;;;;59.67;32.30;;;;;;;8.14;56.80;100862.16;5030346;28;20052;-20
2022/03/16 10:36:00;;;;;;;27.42;17.92;;;;;;;7.84;59.04;100869.25;5031095;28;20505;-20
2022/03/16 10:38:26;;;;;;;29.05;19.88;;;;;;;7.92;58.83;100865.72;5012973;28;20087;-21
2022/03/16 10:40:55;;;;;;;30.05;20.90;;;;;;;7.89;59.25;100845.66;5030823;28;20034;-21
2022/03/16 10:49:04;;;;;;;25.70;17.98;;;;;;;7.79;58.91;100845.09;5030797;28;20041;-20
2022/03/16 10:51:30;;;;;;;30.35;21.35;;;;;;;8.02;58.21;100842.34;5030274;28;20619;-22
2022/03/16 10:53:58;;;;;;;26.85;18.83;;;;;;;7.94;57.08;100822.03;5030299;28;20056;-21
2022/03/16 10:56:24;;;;;;;27.45;21.83;;;;;;;7.85;57.86;100839.88;5030768;28;20413;-20
2022/03/16 10:58:52;;;;;;;32.10;24.35;;;;;;;8.13;56.81;100820.66;5012482;28;20034;-21
2022/03/16 11:01:19;;;;;;;24.13;16.42;;;;;;;7.86;58.52;100822.09;5030427;28;20026;-21
2022/03/16 11:03:45;;;;;;;21.77;15.98;;;;;;;8.41;56.75;100834.09;5030215;28;20041;-21
2022/03/16 11:06:11;;;;;;;23.98;16.38;;;;;;;7.99;57.52;100830.28;5030132;28;20025;-21
2022/03/16 11:08:38;;;;;;;28.15;18.80;;;;;;;7.44;59.19;100800.47;5030379;28;20368;-21
2022/03/16 11:13:28;;;;;;;26.48;17.42;;;;;;;8.12;57.79;100834.94;5030088;28;20033;-20
2022/03/16 11:13:54;;;;;;;29.13;19.13;;;;;;;8.39;56.96;100835.28;5030062;28;20080;-21
2022/03/16 11:16:21;;;;;;;29.80;18.75;;;;;;;7.99;57.97;100817.00;5030234;28;20104;-21
2022/03/16 11:18:51;;;;;;;29.13;18.90;;;;;;;8.50;56.63;100834.84;5030310;28;20033;-20
2022/03/16 11:21:22;;;;;;;27.58;18.73;;;;;;;8.23;57.93;100829.19;5030038;28;20033;-20
2022/03/16 11:27:10;;;;;;;21.98;16.70;;;;;;;8.14;58.29;100816.97;5030073;28;20087;-21
2022/03/16 11:29:43;;;;;;;24.45;16.98;;;;;;;7.70;58.56;100825.75;5030194;28;20034;-20